Green Creek, Illinois
Current Conditions -  °F | °C
As of 10:55 PM on Sunday 21 Dec 2014 (Local Time) from K1H2 Reporting Station
Scattered Clouds Scattered Clouds  
Wind Chill: 26°   Ceiling: Unl
Heat Index: 32°   Visibility: 7mi
Dew Point: 27°   Wind: 7mph
Humidity: 80%   Direction: 100°E
Pressure: 30.03"   Gusts: NA
Location:  39.1183°N, 88.6059°W
Report Text: K1H2 220455Z AUTO 10006KT 7SM SCT095 00/M03 A3003 RMK AO2 T00011029
Loading
Personal Weather Stations






























Interactive Weather Map New forecast layout! Learn more

10-Day Weather Forecast

Advertisements
Track Severe Weather on mobile